Carlyle, Canada
Current Conditions -  °F | °C
As of 3:00 PM on Friday 19 Dec 2014 (Local Time) from CYEN Reporting Station
Moderate Fog Moderate Fog  
Wind Chill: 16°   Ceiling: 200
Heat Index: 23°   Visibility: 0.37mi
Dew Point: 21°   Wind: 6mph
Humidity: 93%   Direction: 250°WSW
Pressure: 29.91"   Gusts: NA
Location:  49.63°N, 102.27°W
Report Text: CYEN 192100Z 25005KT 3/8SM FZFG VV002 M05/M06 A2991 RMK FG8SLP162
Loading
Personal Weather Stations






























Interactive Weather Map New forecast layout! Learn more

10-Day Weather Forecast

Advertisements
Track Severe Weather on mobile